createdAt,value
2022-09-28T00:00:34.811Z,17.98
2022-09-28T00:03:04.693Z,17.85
2022-09-28T00:05:34.483Z,17.99
2022-09-28T00:08:04.302Z,17.91
2022-09-28T00:10:34.241Z,17.74
2022-09-28T00:13:03.989Z,17.75
2022-09-28T00:15:35.516Z,17.74
2022-09-28T00:18:05.370Z,17.72
2022-09-28T00:20:35.190Z,17.73
2022-09-28T00:23:04.928Z,17.55
2022-09-28T00:25:34.873Z,17.55
2022-09-28T00:28:05.265Z,17.60
2022-09-28T00:30:36.429Z,17.61
2022-09-28T00:33:06.196Z,17.54
2022-09-28T00:35:36.014Z,17.52
2022-09-28T00:38:05.948Z,17.64
2022-09-28T00:40:36.046Z,17.71
2022-09-28T00:43:19.660Z,17.70
2022-09-28T00:45:56.698Z,17.64
2022-09-28T00:48:30.686Z,17.52
2022-09-28T00:51:04.786Z,17.37
2022-09-28T00:53:37.962Z,17.30
2022-09-28T00:56:12.908Z,17.20
2022-09-28T00:58:46.644Z,17.33
2022-09-28T01:01:18.427Z,17.29
2022-09-28T01:03:49.132Z,17.31
2022-09-28T01:06:21.941Z,17.35
2022-09-28T01:08:54.144Z,17.33
2022-09-28T01:11:24.005Z,17.22
2022-09-28T01:13:56.444Z,17.00
2022-09-28T01:16:35.906Z,16.99
2022-09-28T01:19:25.999Z,17.02
2022-09-28T01:22:09.923Z,17.03
2022-09-28T01:24:43.301Z,16.92
2022-09-28T01:27:21.300Z,16.93
2022-09-28T01:29:58.643Z,16.84
2022-09-28T01:32:36.660Z,16.85
2022-09-28T01:35:12.432Z,16.83
2022-09-28T01:37:48.480Z,16.69
2022-09-28T01:40:19.197Z,16.70
2022-09-28T01:42:56.061Z,16.63
2022-09-28T01:45:30.269Z,16.74
2022-09-28T01:48:06.053Z,16.63
2022-09-28T01:50:39.886Z,16.58
2022-09-28T01:53:16.177Z,16.69
2022-09-28T01:55:49.015Z,16.62
2022-09-28T01:58:25.942Z,16.52
2022-09-28T02:01:01.297Z,16.57
2022-09-28T02:03:36.959Z,16.65
2022-09-28T02:06:12.627Z,16.61
2022-09-28T02:08:50.434Z,16.43
2022-09-28T02:11:22.375Z,16.57
2022-09-28T02:13:58.109Z,16.45
2022-09-28T02:16:35.843Z,16.62
2022-09-28T02:19:08.188Z,16.38
2022-09-28T02:21:44.359Z,16.42
2022-09-28T02:24:21.628Z,16.45
2022-09-28T02:26:53.076Z,16.49
2022-09-28T02:29:24.749Z,16.26
2022-09-28T02:31:54.572Z,16.29
2022-09-28T02:34:24.516Z,16.34
2022-09-28T02:36:54.528Z,16.38
2022-09-28T02:39:24.691Z,16.49
2022-09-28T02:42:05.960Z,16.33
2022-09-28T02:44:58.807Z,16.37
2022-09-28T02:47:39.097Z,16.28
2022-09-28T02:50:17.954Z,16.15
2022-09-28T02:53:12.405Z,16.07
2022-09-28T02:55:50.597Z,16.20
2022-09-28T02:58:29.404Z,16.23
2022-09-28T03:01:08.474Z,16.14
2022-09-28T03:03:47.440Z,16.18
2022-09-28T03:06:24.554Z,16.23
2022-09-28T03:09:01.704Z,16.36
2022-09-28T03:11:36.252Z,16.43
2022-09-28T03:14:07.032Z,16.43
2022-09-28T03:16:38.494Z,16.41
2022-09-28T03:19:08.316Z,16.38
2022-09-28T03:21:38.244Z,16.34
2022-09-28T03:24:11.154Z,16.29
2022-09-28T03:26:40.977Z,16.39
2022-09-28T03:29:10.869Z,16.43
2022-09-28T03:31:42.218Z,16.41
2022-09-28T03:34:12.099Z,16.14
2022-09-28T03:36:41.996Z,16.31
2022-09-28T03:39:11.811Z,16.29
2022-09-28T03:41:41.588Z,16.23
2022-09-28T03:44:11.306Z,16.25
2022-09-28T03:46:43.146Z,16.12
2022-09-28T03:49:13.094Z,16.08
2022-09-28T03:51:43.353Z,16.06
2022-09-28T03:54:13.124Z,15.90
2022-09-28T03:56:43.220Z,15.97
2022-09-28T03:59:13.186Z,16.05
2022-09-28T04:01:44.567Z,16.10
2022-09-28T04:04:14.676Z,16.04
2022-09-28T04:06:44.472Z,16.00
2022-09-28T04:09:14.487Z,15.90
2022-09-28T04:12:02.736Z,15.87
2022-09-28T04:14:34.341Z,15.94
2022-09-28T04:17:06.347Z,15.87
2022-09-28T04:19:36.499Z,15.79
2022-09-28T04:22:06.259Z,15.72
2022-09-28T04:24:37.327Z,15.81
2022-09-28T04:27:23.651Z,15.81
2022-09-28T04:29:53.511Z,15.74
2022-09-28T04:32:24.611Z,15.89
2022-09-28T04:34:55.936Z,15.82
2022-09-28T04:37:25.854Z,15.66
2022-09-28T04:39:55.731Z,15.69
2022-09-28T04:42:25.773Z,15.83
2022-09-28T04:44:57.677Z,15.74
2022-09-28T04:47:30.944Z,15.67
2022-09-28T04:50:00.822Z,15.62
2022-09-28T04:52:30.619Z,15.69
2022-09-28T04:55:00.300Z,15.72
2022-09-28T04:57:30.328Z,15.64
2022-09-28T05:00:00.092Z,15.77
2022-09-28T05:02:31.656Z,15.82
2022-09-28T05:05:02.277Z,15.75
2022-09-28T05:07:32.317Z,15.78
2022-09-28T05:10:02.345Z,15.71
2022-09-28T05:12:32.106Z,15.69
2022-09-28T05:15:03.201Z,15.93
2022-09-28T05:17:34.880Z,16.14
2022-09-28T05:20:05.298Z,16.28
2022-09-28T05:22:35.304Z,16.36
2022-09-28T05:25:05.584Z,16.39
2022-09-28T05:27:35.435Z,16.59
2022-09-28T05:30:05.824Z,16.77
2022-09-28T05:32:40.780Z,16.92
2022-09-28T05:35:11.142Z,16.87
2022-09-28T05:37:41.205Z,16.85
2022-09-28T05:40:12.418Z,17.08
2022-09-28T05:42:42.250Z,17.07
2022-09-28T05:45:12.316Z,17.02
2022-09-28T05:47:46.155Z,17.09
2022-09-28T05:50:16.425Z,17.33
2022-09-28T05:52:46.835Z,17.14
2022-09-28T05:55:16.771Z,17.14
2022-09-28T05:57:48.229Z,17.29
2022-09-28T06:00:19.087Z,17.42
2022-09-28T06:02:59.065Z,17.39
2022-09-28T06:05:29.558Z,17.64
2022-09-28T06:08:00.383Z,17.50
2022-09-28T06:10:30.199Z,17.70
2022-09-28T06:13:00.347Z,17.69
2022-09-28T06:15:34.745Z,17.58
2022-09-28T06:18:08.094Z,17.81
2022-09-28T06:20:41.075Z,17.91
2022-09-28T06:23:11.399Z,18.02
2022-09-28T06:25:41.643Z,18.16
2022-09-28T06:28:13.088Z,18.21
2022-09-28T06:30:45.068Z,18.30
2022-09-28T06:33:18.178Z,18.40
2022-09-28T06:35:48.052Z,18.43
2022-09-28T06:38:17.790Z,18.41
2022-09-28T06:40:47.599Z,18.43
2022-09-28T06:43:17.445Z,18.30
2022-09-28T06:45:52.678Z,18.62
2022-09-28T06:48:23.887Z,18.67
2022-09-28T06:50:53.892Z,18.73
2022-09-28T06:53:23.673Z,18.79
2022-09-28T06:55:53.502Z,18.92
2022-09-28T06:58:24.132Z,18.95
2022-09-28T07:00:54.475Z,19.01
2022-09-28T07:03:25.812Z,19.08
2022-09-28T07:05:58.254Z,19.14
2022-09-28T07:08:29.200Z,19.18
2022-09-28T07:10:59.227Z,19.17
2022-09-28T07:13:49.237Z,19.33
2022-09-28T07:16:25.779Z,19.43
2022-09-28T07:18:58.468Z,19.54
2022-09-28T07:21:30.500Z,19.65
2022-09-28T07:24:01.463Z,19.73
2022-09-28T07:26:33.250Z,19.81
2022-09-28T07:29:03.476Z,19.89
2022-09-28T07:31:34.618Z,19.94
2022-09-28T07:34:05.750Z,20.02
2022-09-28T07:36:36.861Z,20.10
2022-09-28T07:39:07.002Z,20.21
2022-09-28T07:41:36.289Z,20.31
2022-09-28T07:44:06.606Z,20.39
2022-09-28T07:46:37.205Z,20.44
2022-09-28T07:49:11.601Z,20.56
2022-09-28T07:51:44.287Z,20.52
2022-09-28T07:54:14.139Z,20.51
2022-09-28T07:56:43.901Z,20.56
2022-09-28T07:59:17.659Z,20.64
2022-09-28T08:01:49.497Z,20.63
2022-09-28T08:04:20.638Z,20.67
2022-09-28T08:06:51.193Z,20.72
2022-09-28T08:09:21.015Z,20.83
2022-09-28T08:11:50.885Z,20.90
2022-09-28T08:14:20.795Z,21.07
2022-09-28T08:16:53.155Z,21.04
2022-09-28T08:19:25.310Z,21.13
2022-09-28T08:21:54.170Z,21.20
2022-09-28T08:24:24.759Z,21.19
2022-09-28T08:26:55.641Z,21.15
2022-09-28T08:29:25.713Z,21.23
2022-09-28T08:31:59.531Z,21.32
2022-09-28T08:34:32.861Z,21.30
2022-09-28T08:37:02.804Z,21.40
2022-09-28T08:39:34.593Z,21.36
2022-09-28T08:42:32.083Z,21.44
2022-09-28T08:45:09.180Z,21.63
2022-09-28T08:48:07.530Z,21.73
2022-09-28T08:50:48.417Z,21.87
2022-09-28T08:53:36.100Z,22.00
2022-09-28T08:56:12.012Z,22.06
2022-09-28T08:58:44.452Z,22.01
2022-09-28T09:01:19.020Z,22.04
2022-09-28T09:03:50.503Z,22.06
2022-09-28T09:06:30.180Z,22.11
2022-09-28T09:09:09.560Z,22.17
2022-09-28T09:11:52.541Z,22.19
2022-09-28T09:14:51.008Z,22.27
2022-09-28T09:17:32.219Z,22.20
2022-09-28T09:20:12.195Z,22.32
2022-09-28T09:22:58.693Z,22.52
2022-09-28T09:25:36.553Z,22.55
2022-09-28T09:28:35.348Z,22.49
2022-09-28T09:31:11.861Z,22.47
2022-09-28T09:34:02.750Z,22.55
2022-09-28T09:36:43.914Z,22.47
2022-09-28T09:39:30.209Z,22.51
2022-09-28T09:42:13.683Z,22.59
2022-09-28T09:45:01.485Z,22.76
2022-09-28T09:47:34.869Z,22.74
2022-09-28T09:50:12.227Z,22.37
2022-09-28T09:52:51.640Z,22.72
2022-09-28T09:55:30.208Z,22.94
2022-09-28T09:58:10.264Z,22.96
2022-09-28T10:00:42.624Z,23.02
2022-09-28T10:03:21.573Z,23.00
2022-09-28T10:05:58.619Z,23.03
2022-09-28T10:08:30.366Z,22.91
2022-09-28T10:11:10.681Z,23.05
2022-09-28T10:13:41.154Z,23.29
2022-09-28T10:16:11.174Z,23.24
2022-09-28T10:18:42.309Z,23.14
2022-09-28T10:21:14.924Z,23.38
2022-09-28T10:23:46.251Z,23.35
2022-09-28T10:26:25.065Z,23.49
2022-09-28T10:28:59.179Z,23.52
2022-09-28T10:31:37.889Z,23.55
2022-09-28T10:34:09.108Z,23.71
2022-09-28T10:36:48.100Z,23.94
2022-09-28T10:39:29.576Z,23.84
2022-09-28T10:42:04.514Z,24.05
2022-09-28T10:44:39.877Z,24.01
2022-09-28T10:47:14.841Z,23.96
2022-09-28T10:49:48.499Z,24.12
2022-09-28T10:52:36.900Z,24.08
2022-09-28T10:55:27.547Z,24.01
2022-09-28T10:57:58.769Z,23.95
2022-09-28T11:00:36.172Z,24.19
2022-09-28T11:03:06.508Z,24.12
2022-09-28T11:05:38.814Z,24.20
2022-09-28T11:08:09.592Z,24.16
2022-09-28T11:10:39.564Z,24.12
2022-09-28T11:13:11.895Z,24.06
2022-09-28T11:15:44.842Z,23.94
2022-09-28T11:18:26.391Z,23.84
2022-09-28T11:21:12.880Z,23.87
2022-09-28T11:23:55.869Z,23.81
2022-09-28T11:26:25.926Z,23.56
2022-09-28T11:28:57.215Z,23.78
2022-09-28T11:31:29.596Z,23.78
2022-09-28T11:34:13.934Z,23.89
2022-09-28T11:37:06.431Z,23.64
2022-09-28T11:39:47.107Z,23.68
2022-09-28T11:42:30.520Z,23.56
2022-09-28T11:45:14.022Z,23.93
2022-09-28T11:47:51.624Z,23.95
2022-09-28T11:50:43.894Z,24.17
2022-09-28T11:53:22.063Z,24.05
2022-09-28T11:55:59.157Z,23.92
2022-09-28T11:58:34.226Z,23.72
2022-09-28T12:01:14.290Z,23.57
2022-09-28T12:03:51.347Z,23.44
2022-09-28T12:06:26.715Z,23.44
2022-09-28T12:09:04.607Z,23.46
2022-09-28T12:11:40.287Z,23.52
2022-09-28T12:14:19.257Z,23.53
2022-09-28T12:17:10.979Z,23.31
2022-09-28T12:19:46.467Z,23.35
2022-09-28T12:22:22.143Z,23.64
2022-09-28T12:24:56.626Z,23.58
2022-09-28T12:27:33.787Z,23.61
2022-09-28T12:30:06.150Z,23.66
2022-09-28T12:32:42.934Z,23.74
2022-09-28T12:35:14.804Z,23.70
2022-09-28T12:37:58.664Z,23.78
2022-09-28T12:40:42.491Z,23.68
2022-09-28T12:43:37.735Z,23.52
2022-09-28T12:46:30.486Z,23.61
2022-09-28T12:52:28.227Z,23.78
2022-09-28T12:55:23.236Z,23.52
2022-09-28T12:58:00.096Z,23.45
2022-09-28T13:00:40.026Z,23.50
2022-09-28T13:03:32.466Z,23.70
2022-09-28T13:06:29.378Z,23.58
2022-09-28T13:09:16.446Z,23.89
2022-09-28T13:11:59.981Z,23.88
2022-09-28T13:14:53.214Z,23.81
2022-09-28T13:17:37.822Z,23.86
2022-09-28T13:20:32.280Z,23.88
2022-09-28T13:23:15.429Z,23.85
2022-09-28T13:25:50.962Z,23.81
2022-09-28T13:28:27.048Z,23.74
2022-09-28T13:31:00.339Z,23.79
2022-09-28T13:33:36.770Z,23.73
2022-09-28T13:36:42.543Z,23.79
2022-09-28T13:39:38.924Z,23.84
2022-09-28T13:42:11.163Z,23.94
2022-09-28T13:44:59.710Z,23.86
2022-09-28T13:47:49.620Z,23.82
2022-09-28T13:50:28.821Z,23.79
2022-09-28T13:53:05.870Z,23.77
2022-09-28T13:55:50.778Z,23.82
2022-09-28T13:58:27.468Z,23.68
2022-09-28T14:01:03.527Z,23.73
2022-09-28T14:03:53.878Z,23.70
2022-09-28T14:06:27.060Z,23.72
2022-09-28T14:09:25.102Z,23.62
2022-09-28T14:11:58.776Z,23.55
2022-09-28T14:14:32.411Z,23.56
2022-09-28T14:17:50.459Z,23.53
2022-09-28T14:20:26.311Z,23.67
2022-09-28T14:23:33.998Z,23.76
2022-09-28T14:26:33.061Z,23.65
2022-09-28T14:29:17.364Z,23.21
2022-09-28T14:31:47.428Z,23.42
2022-09-28T14:34:34.193Z,22.91
2022-09-28T14:37:23.207Z,23.27
2022-09-28T14:40:11.050Z,23.26
2022-09-28T14:42:41.230Z,23.23
2022-09-28T14:45:46.049Z,23.24
2022-09-28T14:48:21.320Z,23.17
2022-09-28T14:50:51.508Z,23.12
2022-09-28T14:53:24.912Z,23.07
2022-09-28T14:55:58.882Z,23.19
2022-09-28T14:58:30.296Z,23.10
2022-09-28T15:01:06.578Z,23.05
2022-09-28T15:03:40.538Z,22.97
2022-09-28T15:06:16.187Z,22.91
2022-09-28T15:08:46.413Z,22.85
2022-09-28T15:11:19.352Z,22.80
2022-09-28T15:13:53.406Z,22.72
2022-09-28T15:16:25.765Z,22.74
2022-09-28T15:19:22.823Z,22.43
2022-09-28T15:21:52.893Z,22.61
2022-09-28T15:24:30.656Z,22.58
2022-09-28T15:27:01.875Z,22.60
2022-09-28T15:29:33.556Z,22.56
2022-09-28T15:32:04.870Z,22.58
2022-09-28T15:34:54.776Z,22.54
2022-09-28T15:37:27.732Z,22.52
2022-09-28T15:39:59.343Z,22.65
2022-09-28T15:42:29.263Z,22.85
2022-09-28T15:45:07.825Z,22.85
2022-09-28T15:47:40.115Z,22.88
2022-09-28T15:50:23.017Z,22.73
2022-09-28T15:53:00.764Z,22.77
2022-09-28T15:55:33.471Z,22.70
2022-09-28T15:58:08.810Z,22.72
2022-09-28T16:00:38.816Z,22.77
2022-09-28T16:03:24.895Z,22.71
2022-09-28T16:06:07.555Z,22.73
2022-09-28T16:08:42.798Z,22.66
2022-09-28T16:11:18.261Z,22.40
2022-09-28T16:14:01.833Z,22.63
2022-09-28T16:16:35.506Z,22.62
2022-09-28T16:19:07.429Z,22.57
2022-09-28T16:21:44.605Z,22.52
2022-09-28T16:24:23.537Z,22.41
2022-09-28T16:26:59.381Z,22.52
2022-09-28T16:29:39.169Z,22.53
2022-09-28T16:32:42.488Z,22.47
2022-09-28T16:35:26.546Z,22.43
2022-09-28T16:38:03.731Z,22.47
2022-09-28T16:40:35.081Z,22.33
2022-09-28T16:43:08.121Z,22.40
2022-09-28T16:45:39.309Z,22.43
2022-09-28T16:48:11.021Z,22.39
2022-09-28T16:50:42.366Z,22.48
2022-09-28T16:53:32.763Z,22.39
2022-09-28T16:56:04.730Z,22.32
2022-09-28T16:58:39.202Z,22.14
2022-09-28T17:01:12.942Z,22.20
2022-09-28T17:03:46.838Z,22.18
2022-09-28T17:06:20.269Z,22.18
2022-09-28T17:08:50.017Z,22.17
2022-09-28T17:11:24.633Z,22.17
2022-09-28T17:13:59.107Z,22.17
2022-09-28T17:16:58.201Z,22.12
2022-09-28T17:19:25.617Z,22.04
2022-09-28T17:21:57.168Z,22.02
2022-09-28T17:24:26.976Z,21.97
2022-09-28T17:26:56.983Z,21.95
2022-09-28T17:29:27.756Z,21.92
2022-09-28T17:31:57.572Z,21.89
2022-09-28T17:34:27.644Z,21.82
2022-09-28T17:36:58.850Z,21.78
2022-09-28T17:39:28.652Z,21.74
2022-09-28T17:41:58.730Z,21.69
2022-09-28T17:44:29.212Z,21.68
2022-09-28T17:47:00.654Z,21.66
2022-09-28T17:49:30.419Z,21.59
2022-09-28T17:52:02.017Z,21.57
2022-09-28T17:54:33.841Z,21.56
2022-09-28T17:57:03.582Z,21.53
2022-09-28T17:59:33.355Z,21.47
2022-09-28T18:02:04.563Z,21.45
2022-09-28T18:04:51.378Z,21.43
2022-09-28T18:07:24.895Z,21.38
2022-09-28T18:09:56.723Z,21.33
2022-09-28T18:12:26.760Z,21.26
2022-09-28T18:14:56.547Z,21.25
2022-09-28T18:17:26.529Z,21.23
2022-09-28T18:19:56.709Z,21.19
2022-09-28T18:22:27.897Z,21.19
2022-09-28T18:24:57.881Z,21.10
2022-09-28T18:27:29.329Z,21.03
2022-09-28T18:29:59.247Z,20.97
2022-09-28T18:32:29.371Z,20.91
2022-09-28T18:35:00.747Z,20.84
2022-09-28T18:37:32.067Z,20.78
2022-09-28T18:40:02.755Z,20.76
2022-09-28T18:42:35.811Z,20.72
2022-09-28T18:45:07.864Z,20.69
2022-09-28T18:47:38.049Z,20.62
2022-09-28T18:50:09.011Z,20.50
2022-09-28T18:52:41.151Z,20.45
2022-09-28T18:55:12.889Z,20.43
2022-09-28T18:57:44.180Z,20.42
2022-09-28T19:00:16.083Z,20.34
2022-09-28T19:02:50.290Z,20.37
2022-09-28T19:05:20.568Z,20.37
2022-09-28T19:07:52.442Z,20.31
2022-09-28T19:10:22.538Z,20.26
2022-09-28T19:12:53.087Z,20.22
2022-09-28T19:15:22.964Z,20.10
2022-09-28T19:17:52.960Z,20.02
2022-09-28T19:20:22.989Z,20.02
2022-09-28T19:22:54.160Z,19.99
2022-09-28T19:25:24.340Z,19.96
2022-09-28T19:27:54.369Z,20.04
2022-09-28T19:30:24.720Z,19.86
2022-09-28T19:32:54.553Z,19.99
2022-09-28T19:35:24.312Z,19.92
2022-09-28T19:37:56.141Z,20.00
2022-09-28T19:40:26.017Z,20.04
2022-09-28T19:42:55.779Z,20.06
2022-09-28T19:45:25.900Z,20.08
2022-09-28T19:47:59.572Z,20.06
2022-09-28T19:50:29.175Z,20.08
2022-09-28T19:53:01.670Z,20.03
2022-09-28T19:55:37.012Z,20.10
2022-09-28T19:58:06.793Z,20.06
2022-09-28T20:00:39.849Z,20.06
2022-09-28T20:03:09.716Z,20.05
2022-09-28T20:05:41.497Z,20.05
2022-09-28T20:08:14.884Z,19.99
2022-09-28T20:10:52.347Z,19.94
2022-09-28T20:13:22.835Z,19.85
2022-09-28T20:15:53.960Z,19.91
2022-09-28T20:18:23.806Z,19.89
2022-09-28T20:21:02.657Z,19.90
2022-09-28T20:23:36.203Z,19.89
2022-09-28T20:26:07.078Z,19.82
2022-09-28T20:28:36.905Z,19.75
2022-09-28T20:31:08.351Z,19.67
2022-09-28T20:33:38.926Z,19.58
2022-09-28T20:36:10.825Z,19.55
2022-09-28T20:38:42.455Z,19.45
2022-09-28T20:41:13.557Z,19.47
2022-09-28T20:43:43.355Z,19.46
2022-09-28T20:46:14.525Z,19.48
2022-09-28T20:48:44.720Z,19.49
2022-09-28T20:51:16.365Z,19.43
2022-09-28T20:53:50.944Z,19.41
2022-09-28T20:56:23.029Z,19.38
2022-09-28T20:58:53.938Z,19.28
2022-09-28T21:01:25.466Z,19.25
2022-09-28T21:03:56.595Z,19.19
2022-09-28T21:06:28.157Z,19.24
2022-09-28T21:08:59.993Z,19.24
2022-09-28T21:11:31.081Z,19.20
2022-09-28T21:14:02.375Z,19.00
2022-09-28T21:16:33.675Z,19.09
2022-09-28T21:19:04.058Z,19.10
2022-09-28T21:21:34.855Z,19.00
2022-09-28T21:24:06.871Z,18.97
2022-09-28T21:26:36.753Z,18.94
2022-09-28T21:29:08.692Z,18.94
2022-09-28T21:31:40.392Z,18.89
2022-09-28T21:34:13.819Z,18.92
2022-09-28T21:36:44.170Z,19.03
2022-09-28T21:39:15.598Z,19.03
2022-09-28T21:41:45.814Z,19.03
2022-09-28T21:44:15.878Z,19.15
2022-09-28T21:46:45.798Z,19.24
2022-09-28T21:49:15.684Z,19.29
2022-09-28T21:51:47.177Z,19.36
2022-09-28T21:54:18.442Z,19.39
2022-09-28T21:56:48.511Z,19.42
2022-09-28T21:59:18.261Z,19.49
2022-09-28T22:01:48.296Z,19.44
2022-09-28T22:04:18.147Z,19.44
2022-09-28T22:06:47.999Z,19.45
2022-09-28T22:09:19.303Z,19.47
2022-09-28T22:11:53.886Z,19.49
2022-09-28T22:14:23.711Z,19.47
2022-09-28T22:16:53.604Z,19.49
2022-09-28T22:19:23.359Z,19.18
2022-09-28T22:21:53.108Z,19.45
2022-09-28T22:24:24.875Z,19.42
2022-09-28T22:26:54.707Z,19.46
2022-09-28T22:29:24.494Z,19.53
2022-09-28T22:32:00.161Z,19.56
2022-09-28T22:34:31.683Z,19.57
2022-09-28T22:37:02.960Z,19.57
2022-09-28T22:39:37.503Z,19.48
2022-09-28T22:42:07.829Z,19.48
2022-09-28T22:44:37.779Z,19.41
2022-09-28T22:47:07.627Z,19.45
2022-09-28T22:49:37.385Z,19.49
2022-09-28T22:52:07.335Z,19.55
2022-09-28T22:54:40.382Z,19.60
2022-09-28T22:57:10.195Z,19.69
2022-09-28T22:59:40.035Z,19.70
2022-09-28T23:02:10.084Z,19.69
2022-09-28T23:04:39.811Z,19.70
2022-09-28T23:07:09.827Z,19.75
2022-09-28T23:09:40.984Z,19.77
2022-09-28T23:12:10.815Z,19.90
2022-09-28T23:14:40.915Z,19.90
2022-09-28T23:17:10.748Z,19.79
2022-09-28T23:19:41.082Z,19.92
2022-09-28T23:22:10.937Z,19.89
2022-09-28T23:24:42.051Z,19.83
2022-09-28T23:27:11.900Z,19.80
2022-09-28T23:29:46.819Z,19.78
2022-09-28T23:32:17.998Z,19.77
2022-09-28T23:34:47.777Z,19.72
2022-09-28T23:37:17.575Z,19.74
2022-09-28T23:39:48.664Z,19.68
2022-09-28T23:42:18.497Z,19.74
2022-09-28T23:44:48.351Z,19.73
2022-09-28T23:47:18.289Z,19.70
2022-09-28T23:49:48.091Z,19.68
2022-09-28T23:52:18.073Z,19.70
2022-09-28T23:54:59.116Z,19.65
2022-09-28T23:57:28.964Z,19.61
2022-09-28T23:59:58.695Z,19.64
